createdAt,value
2023-04-13T00:00:36.876Z,71.28
2023-04-13T00:03:04.264Z,71.60
2023-04-13T00:05:31.359Z,71.68
2023-04-13T00:08:02.664Z,71.92
2023-04-13T00:10:31.483Z,71.88
2023-04-13T00:13:01.803Z,71.69
2023-04-13T00:15:28.730Z,71.10
2023-04-13T00:17:55.773Z,70.84
2023-04-13T00:20:22.738Z,71.23
2023-04-13T00:22:49.523Z,70.85
2023-04-13T00:25:17.046Z,71.04
2023-04-13T00:27:44.122Z,71.26
2023-04-13T00:30:14.826Z,71.48
2023-04-13T00:32:45.012Z,71.62
2023-04-13T00:35:12.036Z,71.85
2023-04-13T00:37:38.804Z,70.94
2023-04-13T00:40:09.518Z,71.54
2023-04-13T00:42:36.333Z,71.90
2023-04-13T00:45:03.045Z,72.23
2023-04-13T00:47:34.051Z,71.78
2023-04-13T00:50:01.846Z,71.44
2023-04-13T00:52:29.243Z,72.17
2023-04-13T00:54:58.659Z,71.87
2023-04-13T00:57:25.740Z,71.21
2023-04-13T00:59:52.830Z,70.80
2023-04-13T01:02:26.418Z,70.98
2023-04-13T01:04:55.253Z,70.50
2023-04-13T01:07:28.357Z,71.10
2023-04-13T01:10:11.656Z,70.84
2023-04-13T01:12:38.269Z,70.80
2023-04-13T01:15:05.045Z,70.91
2023-04-13T01:17:34.608Z,71.07
2023-04-13T01:20:16.304Z,70.94
2023-04-13T01:22:45.733Z,70.86
2023-04-13T01:25:33.624Z,71.15
2023-04-13T01:28:10.002Z,71.15
2023-04-13T01:30:37.741Z,71.48
2023-04-13T01:33:04.899Z,70.86
2023-04-13T01:35:32.599Z,70.85
2023-04-13T01:37:59.854Z,71.08
2023-04-13T01:40:27.601Z,71.02
2023-04-13T01:42:54.579Z,70.49
2023-04-13T01:45:37.454Z,70.54
2023-04-13T01:48:27.322Z,70.68
2023-04-13T01:51:10.376Z,71.09
2023-04-13T01:53:44.816Z,70.73
2023-04-13T01:56:13.242Z,70.70
2023-04-13T01:58:41.011Z,70.84
2023-04-13T02:01:08.104Z,70.73
2023-04-13T02:03:36.137Z,70.46
2023-04-13T02:06:03.271Z,71.09
2023-04-13T02:08:34.838Z,70.37
2023-04-13T02:11:02.144Z,70.42
2023-04-13T02:13:30.087Z,70.75
2023-04-13T02:15:58.221Z,70.58
2023-04-13T02:18:25.766Z,70.47
2023-04-13T02:21:09.445Z,71.13
2023-04-13T02:23:37.136Z,70.75
2023-04-13T02:26:04.545Z,70.98
2023-04-13T02:28:31.010Z,71.70
2023-04-13T02:30:59.811Z,71.59
2023-04-13T02:33:31.416Z,71.72
2023-04-13T02:35:58.801Z,71.59
2023-04-13T02:38:26.824Z,71.83
2023-04-13T02:40:57.991Z,71.69
2023-04-13T02:43:26.374Z,71.63
2023-04-13T02:45:53.719Z,71.87
2023-04-13T02:48:20.805Z,71.56
2023-04-13T02:50:48.009Z,72.54
2023-04-13T02:53:15.698Z,72.29
2023-04-13T02:55:43.305Z,72.82
2023-04-13T02:58:10.987Z,72.53
2023-04-13T03:00:38.494Z,72.98
2023-04-13T03:03:06.787Z,73.56
2023-04-13T03:05:33.922Z,73.07
2023-04-13T03:08:02.418Z,72.79
2023-04-13T03:10:31.625Z,72.81
2023-04-13T03:12:59.092Z,73.27
2023-04-13T03:15:25.663Z,73.38
2023-04-13T03:17:53.126Z,73.17
2023-04-13T03:20:20.902Z,73.01
2023-04-13T03:22:47.810Z,72.75
2023-04-13T03:25:15.580Z,73.68
2023-04-13T03:27:42.148Z,73.52
2023-04-13T03:30:11.368Z,73.13
2023-04-13T03:32:39.178Z,73.85
2023-04-13T03:35:06.768Z,74.33
2023-04-13T03:37:40.484Z,74.25
2023-04-13T03:40:10.335Z,74.78
2023-04-13T03:42:37.617Z,73.71
2023-04-13T03:45:05.146Z,73.17
2023-04-13T03:47:32.002Z,73.04
2023-04-13T03:49:58.822Z,72.56
2023-04-13T03:52:25.747Z,73.74
2023-04-13T03:54:52.603Z,74.00
2023-04-13T03:57:19.630Z,73.91
2023-04-13T03:59:46.092Z,73.79
2023-04-13T04:02:12.667Z,73.83
2023-04-13T04:04:40.916Z,73.41
2023-04-13T04:07:07.731Z,73.75
2023-04-13T04:09:34.542Z,72.67
2023-04-13T04:12:01.736Z,73.90
2023-04-13T04:14:28.761Z,73.77
2023-04-13T04:16:57.973Z,75.59
2023-04-13T04:19:24.803Z,76.35
2023-04-13T04:21:53.115Z,76.82
2023-04-13T04:24:22.764Z,77.52
2023-04-13T04:26:54.922Z,76.36
2023-04-13T04:29:22.223Z,76.06
2023-04-13T04:31:53.795Z,76.16
2023-04-13T04:34:20.662Z,77.30
2023-04-13T04:36:50.494Z,77.13
2023-04-13T04:39:22.097Z,77.73
2023-04-13T04:42:03.664Z,78.33
2023-04-13T04:44:31.164Z,79.28
2023-04-13T04:46:59.515Z,79.37
2023-04-13T04:49:27.920Z,80.16
2023-04-13T04:51:55.185Z,79.40
2023-04-13T04:54:21.922Z,79.09
2023-04-13T04:56:48.540Z,80.87
2023-04-13T04:59:15.657Z,80.88
2023-04-13T05:01:43.530Z,82.30
2023-04-13T05:04:11.160Z,83.00
2023-04-13T05:06:41.345Z,81.15
2023-04-13T05:09:08.878Z,81.27
2023-04-13T05:11:36.865Z,80.73
2023-04-13T05:14:03.831Z,79.65
2023-04-13T05:16:30.763Z,80.18
2023-04-13T05:18:57.988Z,79.15
2023-04-13T05:21:26.600Z,80.49
2023-04-13T05:23:53.680Z,82.56
2023-04-13T05:26:21.330Z,81.83
2023-04-13T05:28:48.142Z,80.61
2023-04-13T05:31:15.966Z,81.63
2023-04-13T05:33:42.648Z,83.47
2023-04-13T05:36:09.852Z,82.91
2023-04-13T05:38:39.333Z,82.62
2023-04-13T05:41:06.165Z,81.13
2023-04-13T05:43:33.361Z,83.09
2023-04-13T05:46:00.490Z,83.01
2023-04-13T05:48:27.381Z,84.06
2023-04-13T05:50:58.331Z,84.41
2023-04-13T05:53:24.942Z,81.80
2023-04-13T05:55:52.689Z,82.57
2023-04-13T05:58:20.128Z,84.45
2023-04-13T06:00:47.027Z,85.50
2023-04-13T06:03:16.106Z,85.47
2023-04-13T06:05:43.201Z,85.28
2023-04-13T06:08:13.541Z,84.77
2023-04-13T06:10:40.285Z,82.75
2023-04-13T06:13:08.205Z,83.16
2023-04-13T06:15:36.249Z,85.35
2023-04-13T06:18:03.113Z,86.00
2023-04-13T06:20:31.654Z,82.04
2023-04-13T06:22:58.546Z,77.79
2023-04-13T06:25:25.593Z,77.97
2023-04-13T06:27:52.840Z,79.73
2023-04-13T06:30:19.547Z,78.31
2023-04-13T06:32:46.319Z,80.54
2023-04-13T06:35:12.846Z,78.46
2023-04-13T06:37:39.508Z,76.45
2023-04-13T06:40:12.784Z,75.91
2023-04-13T06:42:40.353Z,78.37
2023-04-13T06:45:10.692Z,76.27
2023-04-13T06:47:37.791Z,75.18
2023-04-13T06:50:07.908Z,77.52
2023-04-13T06:52:34.967Z,76.69
2023-04-13T06:55:02.275Z,77.03
2023-04-13T06:57:29.519Z,76.26
2023-04-13T06:59:56.611Z,75.48
2023-04-13T07:02:23.790Z,74.85
2023-04-13T07:04:50.820Z,74.28
2023-04-13T07:07:18.500Z,72.56
2023-04-13T07:09:45.187Z,72.54
2023-04-13T07:12:11.800Z,73.46
2023-04-13T07:14:39.176Z,73.71
2023-04-13T07:17:05.787Z,72.23
2023-04-13T07:19:33.209Z,74.69
2023-04-13T07:22:00.236Z,71.88
2023-04-13T07:24:29.393Z,71.48
2023-04-13T07:26:57.553Z,71.04
2023-04-13T07:29:24.658Z,71.83
2023-04-13T07:31:51.679Z,71.87
2023-04-13T07:34:18.728Z,74.02
2023-04-13T07:36:45.735Z,71.35
2023-04-13T07:39:13.199Z,72.02
2023-04-13T07:41:39.834Z,69.83
2023-04-13T07:44:07.214Z,70.96
2023-04-13T07:46:33.847Z,68.81
2023-04-13T07:49:00.968Z,70.62
2023-04-13T07:51:27.884Z,71.11
2023-04-13T07:53:54.693Z,70.14
2023-04-13T07:56:22.571Z,69.93
2023-04-13T07:58:50.616Z,70.82
2023-04-13T08:01:17.439Z,68.06
2023-04-13T08:03:44.333Z,68.53
2023-04-13T08:06:11.447Z,69.56
2023-04-13T08:08:38.250Z,68.74
2023-04-13T08:11:04.742Z,68.20
2023-04-13T08:13:31.503Z,68.27
2023-04-13T08:16:00.321Z,66.50
2023-04-13T08:18:32.196Z,66.47
2023-04-13T08:21:00.344Z,66.01
2023-04-13T08:23:27.374Z,66.46
2023-04-13T08:25:54.482Z,64.64
2023-04-13T08:28:23.048Z,63.41
2023-04-13T08:30:50.565Z,63.63
2023-04-13T08:33:18.664Z,61.92
2023-04-13T08:35:45.000Z,63.37
2023-04-13T08:38:12.547Z,62.04
2023-04-13T08:40:40.340Z,59.90
2023-04-13T08:43:07.491Z,58.39
2023-04-13T08:45:37.081Z,60.33
2023-04-13T08:48:04.015Z,59.96
2023-04-13T08:50:31.107Z,59.41
2023-04-13T08:52:58.124Z,60.54
2023-04-13T08:55:26.563Z,60.14
2023-04-13T08:57:53.569Z,60.74
2023-04-13T09:00:21.816Z,61.55
2023-04-13T09:03:02.841Z,59.83
2023-04-13T09:05:31.602Z,58.21
2023-04-13T09:08:01.771Z,59.63
2023-04-13T09:10:29.357Z,59.19
2023-04-13T09:13:01.218Z,59.60
2023-04-13T09:15:28.249Z,59.47
2023-04-13T09:17:55.128Z,59.08
2023-04-13T09:20:22.805Z,57.89
2023-04-13T09:22:57.588Z,57.23
2023-04-13T09:25:24.452Z,57.91
2023-04-13T09:27:55.761Z,58.69
2023-04-13T09:30:24.817Z,59.02
2023-04-13T09:33:08.016Z,57.36
2023-04-13T09:35:35.438Z,56.49
2023-04-13T09:38:02.885Z,56.80
2023-04-13T09:40:29.565Z,57.18
